createdAt,value
2019-01-24T00:00:17.637Z,53.10
2019-01-24T00:02:40.045Z,54.27
2019-01-24T00:05:01.248Z,52.37
2019-01-24T00:07:22.446Z,54.23
2019-01-24T00:09:43.679Z,50.80
2019-01-24T00:12:04.893Z,51.93
2019-01-24T00:14:26.096Z,55.57
2019-01-24T00:16:47.399Z,56.00
2019-01-24T00:19:08.612Z,51.53
2019-01-24T00:21:29.930Z,51.47
2019-01-24T00:23:51.140Z,54.30
2019-01-24T00:26:12.568Z,55.37
2019-01-24T00:28:34.793Z,55.40
2019-01-24T00:30:55.990Z,57.13
2019-01-24T00:33:17.181Z,51.93
2019-01-24T00:35:39.674Z,59.20
2019-01-24T00:38:00.923Z,48.60
2019-01-24T00:40:22.107Z,54.70
2019-01-24T00:42:43.319Z,55.60
2019-01-24T00:45:06.439Z,54.13
2019-01-24T00:47:27.683Z,56.10
2019-01-24T00:49:48.864Z,54.03
2019-01-24T00:52:10.068Z,55.27
2019-01-24T00:54:31.278Z,52.97
2019-01-24T00:56:52.474Z,52.00
2019-01-24T00:59:13.686Z,54.13
2019-01-24T01:01:34.873Z,52.20
2019-01-24T01:03:56.428Z,50.10
2019-01-24T01:06:17.722Z,48.27
2019-01-24T01:08:38.928Z,50.93
2019-01-24T01:11:00.302Z,46.90
2019-01-24T01:13:21.512Z,48.50
2019-01-24T01:15:42.702Z,49.07
2019-01-24T01:18:03.980Z,49.53
2019-01-24T01:20:25.162Z,47.70
2019-01-24T01:22:46.361Z,50.40
2019-01-24T01:25:09.877Z,50.93
2019-01-24T01:27:31.070Z,52.27
2019-01-24T01:29:52.289Z,51.47
2019-01-24T01:32:13.482Z,49.27
2019-01-24T01:34:36.367Z,51.57
2019-01-24T01:36:57.817Z,51.10
2019-01-24T01:39:19.014Z,50.67
2019-01-24T01:41:40.228Z,54.23
2019-01-24T01:44:01.435Z,53.27
2019-01-24T01:46:22.635Z,50.03
2019-01-24T01:48:43.838Z,50.20
2019-01-24T01:51:05.034Z,49.07
2019-01-24T01:53:26.222Z,49.77
2019-01-24T01:55:47.451Z,51.50
2019-01-24T01:58:28.614Z,53.53
2019-01-24T02:00:49.818Z,49.30
2019-01-24T02:03:11.019Z,49.73
2019-01-24T02:05:32.223Z,50.17
2019-01-24T02:07:53.434Z,49.07
2019-01-24T02:10:17.053Z,53.03
2019-01-24T02:12:38.263Z,52.50
2019-01-24T02:14:59.490Z,50.33
2019-01-24T02:17:20.724Z,49.40
2019-01-24T02:19:42.028Z,49.07
2019-01-24T02:22:03.255Z,51.87
2019-01-24T02:24:24.458Z,49.00
2019-01-24T02:26:45.668Z,51.40
2019-01-24T02:29:07.138Z,50.20
2019-01-24T02:31:28.457Z,51.13
2019-01-24T02:33:49.658Z,50.87
2019-01-24T02:36:10.870Z,48.97
2019-01-24T02:38:32.071Z,48.53
2019-01-24T02:40:53.305Z,49.07
2019-01-24T02:43:14.499Z,49.17
2019-01-24T02:45:35.921Z,52.53
2019-01-24T02:47:57.123Z,52.90
2019-01-24T02:50:20.607Z,53.13
2019-01-24T02:52:41.936Z,49.60
2019-01-24T02:55:23.037Z,50.30
2019-01-24T02:57:44.250Z,50.30
2019-01-24T03:00:11.917Z,46.53
2019-01-24T03:02:33.127Z,49.53
2019-01-24T03:04:57.072Z,49.60
2019-01-24T03:07:17.458Z,52.00
2019-01-24T03:09:38.744Z,50.07
2019-01-24T03:11:59.963Z,47.73
2019-01-24T03:14:21.168Z,47.10
2019-01-24T03:16:42.390Z,52.83
2019-01-24T03:19:03.654Z,47.33
2019-01-24T03:21:24.866Z,49.90
2019-01-24T03:23:46.049Z,49.87
2019-01-24T03:26:07.271Z,51.97
2019-01-24T03:28:28.459Z,48.47
2019-01-24T03:30:49.669Z,50.60
2019-01-24T03:33:11.954Z,55.37
2019-01-24T03:35:33.177Z,52.00
2019-01-24T03:37:54.357Z,52.30
2019-01-24T03:40:15.613Z,51.90
2019-01-24T03:42:36.885Z,50.13
2019-01-24T03:44:58.085Z,54.17
2019-01-24T03:47:19.282Z,52.93
2019-01-24T03:49:40.513Z,51.33
2019-01-24T03:52:01.778Z,50.47
2019-01-24T03:54:22.968Z,48.97
2019-01-24T03:56:44.177Z,51.50
2019-01-24T03:59:05.394Z,50.33
2019-01-24T04:01:26.592Z,50.47
2019-01-24T04:03:47.807Z,52.17
2019-01-24T04:06:09.012Z,50.97
2019-01-24T04:08:30.205Z,52.30
2019-01-24T04:10:51.420Z,52.47
2019-01-24T04:13:12.618Z,50.03
2019-01-24T04:15:33.924Z,54.20
2019-01-24T04:17:55.123Z,51.13
2019-01-24T04:20:16.317Z,50.63
2019-01-24T04:22:37.542Z,52.70
2019-01-24T04:24:58.812Z,52.60
2019-01-24T04:27:20.034Z,56.60
2019-01-24T04:29:41.218Z,54.37
2019-01-24T04:32:02.442Z,48.20
2019-01-24T04:34:23.704Z,53.23
2019-01-24T04:36:44.924Z,56.67
2019-01-24T04:39:06.227Z,53.93
2019-01-24T04:41:27.428Z,52.17
2019-01-24T04:43:48.616Z,51.90
2019-01-24T04:46:09.850Z,51.37
2019-01-24T04:48:31.055Z,53.20
2019-01-24T04:50:52.969Z,51.37
2019-01-24T04:53:14.343Z,53.57
2019-01-24T04:55:35.568Z,49.67
2019-01-24T04:57:56.896Z,50.23
2019-01-24T05:00:20.694Z,51.10
2019-01-24T05:02:42.016Z,52.03
2019-01-24T05:05:03.537Z,50.27
2019-01-24T05:07:25.136Z,46.63
2019-01-24T05:09:46.500Z,47.60
2019-01-24T05:12:07.715Z,46.17
2019-01-24T05:14:28.914Z,50.53
2019-01-24T05:16:50.203Z,54.30
2019-01-24T05:19:11.424Z,53.53
2019-01-24T05:21:33.669Z,54.87
2019-01-24T05:23:54.975Z,50.97
2019-01-24T05:26:16.227Z,51.67
2019-01-24T05:28:37.584Z,52.13
2019-01-24T05:30:58.892Z,50.53
2019-01-24T05:33:20.236Z,48.63
2019-01-24T05:35:41.439Z,49.67
2019-01-24T05:38:02.742Z,49.80
2019-01-24T05:40:24.151Z,49.60
2019-01-24T05:42:45.482Z,50.07
2019-01-24T05:45:12.145Z,54.10
2019-01-24T05:47:33.472Z,51.17
2019-01-24T05:49:54.776Z,55.70
2019-01-24T05:52:19.771Z,47.23
2019-01-24T05:54:39.114Z,53.13
2019-01-24T05:57:00.358Z,47.63
2019-01-24T05:59:21.558Z,48.27
2019-01-24T06:01:43.370Z,49.10
2019-01-24T06:04:05.888Z,50.73
2019-01-24T06:06:27.098Z,50.27
2019-01-24T06:08:48.307Z,51.60
2019-01-24T06:11:09.495Z,54.60
2019-01-24T06:13:30.709Z,53.40
2019-01-24T06:15:51.918Z,48.47
2019-01-24T06:18:13.168Z,55.57
2019-01-24T06:20:34.369Z,51.73
2019-01-24T06:22:55.568Z,53.73
2019-01-24T06:25:16.790Z,184.63
2019-01-24T06:27:38.120Z,105.43
2019-01-24T06:29:59.320Z,96.47
2019-01-24T06:32:20.813Z,54.27
2019-01-24T06:34:42.021Z,53.10
2019-01-24T06:37:03.244Z,51.50
2019-01-24T06:39:24.450Z,53.03
2019-01-24T06:41:45.654Z,54.03
2019-01-24T06:44:06.893Z,48.87
2019-01-24T06:46:28.227Z,50.43
2019-01-24T06:48:49.446Z,51.50
2019-01-24T06:51:10.647Z,48.63
2019-01-24T06:53:31.860Z,55.30
2019-01-24T06:55:53.067Z,46.23
2019-01-24T06:58:14.280Z,44.93
2019-01-24T07:00:35.472Z,43.93
2019-01-24T07:02:56.710Z,47.73
2019-01-24T07:05:18.024Z,46.93
2019-01-24T07:07:39.339Z,47.57
2019-01-24T07:10:04.024Z,48.33
2019-01-24T07:12:25.258Z,47.10
2019-01-24T07:14:46.526Z,49.00
2019-01-24T07:17:07.734Z,44.93
2019-01-24T07:19:28.941Z,46.07
2019-01-24T07:21:50.135Z,45.47
2019-01-24T07:24:11.358Z,46.70
2019-01-24T07:26:32.566Z,45.03
2019-01-24T07:28:53.766Z,46.77
2019-01-24T07:31:14.961Z,47.57
2019-01-24T07:33:36.171Z,48.37
2019-01-24T07:36:02.142Z,48.50
2019-01-24T07:38:20.516Z,49.57
2019-01-24T07:40:41.716Z,49.47
2019-01-24T07:43:03.011Z,52.07
2019-01-24T07:45:27.388Z,51.03
2019-01-24T07:47:48.679Z,50.73
2019-01-24T07:50:11.899Z,51.63
2019-01-24T07:52:33.094Z,52.20
2019-01-24T07:54:54.303Z,50.20
2019-01-24T07:57:15.867Z,51.97
2019-01-24T07:59:37.085Z,57.07
2019-01-24T08:01:58.300Z,55.70
2019-01-24T08:04:19.526Z,58.40
2019-01-24T08:06:40.718Z,55.30
2019-01-24T08:09:03.723Z,59.47
2019-01-24T08:11:24.927Z,52.40
2019-01-24T08:13:46.154Z,53.90
2019-01-24T08:16:07.328Z,50.10
2019-01-24T08:18:28.535Z,54.60
2019-01-24T08:20:49.777Z,54.37
2019-01-24T08:23:11.030Z,50.87
2019-01-24T08:25:32.231Z,52.97
2019-01-24T08:27:53.446Z,54.60
2019-01-24T08:30:21.479Z,50.87
2019-01-24T08:32:42.670Z,50.87
2019-01-24T08:35:05.698Z,53.10
2019-01-24T08:37:26.905Z,53.20
2019-01-24T08:39:48.113Z,50.60
2019-01-24T08:42:09.365Z,54.40
2019-01-24T08:44:30.574Z,53.47
2019-01-24T08:46:51.807Z,52.60
2019-01-24T08:49:13.027Z,49.20
2019-01-24T08:51:34.228Z,50.07
2019-01-24T08:53:55.431Z,52.27
2019-01-24T08:56:16.641Z,50.60
2019-01-24T08:58:37.838Z,52.03
2019-01-24T09:00:59.056Z,51.23
2019-01-24T09:03:20.313Z,51.33
2019-01-24T09:05:41.522Z,55.37
2019-01-24T09:08:03.407Z,51.90
2019-01-24T09:10:30.050Z,51.40
2019-01-24T09:12:51.232Z,57.43
2019-01-24T09:15:12.512Z,53.77
2019-01-24T09:17:33.726Z,55.90
2019-01-24T09:19:54.915Z,53.47
2019-01-24T09:22:16.123Z,53.00
2019-01-24T09:24:37.322Z,52.33
2019-01-24T09:26:58.523Z,52.77
2019-01-24T09:29:19.719Z,54.80
2019-01-24T09:31:40.988Z,53.00
2019-01-24T09:34:02.238Z,53.53
2019-01-24T09:36:29.098Z,53.03
2019-01-24T09:38:46.545Z,48.93
2019-01-24T09:41:07.763Z,52.80
2019-01-24T09:43:28.970Z,51.13
2019-01-24T09:45:50.173Z,49.63
2019-01-24T09:48:11.382Z,54.73
2019-01-24T09:50:33.057Z,51.33
2019-01-24T09:52:54.268Z,48.53
2019-01-24T09:55:15.475Z,49.23
2019-01-24T09:57:36.699Z,51.73
2019-01-24T09:59:57.896Z,52.30
2019-01-24T10:02:19.128Z,52.80
2019-01-24T10:04:40.350Z,48.93
2019-01-24T10:07:01.577Z,49.63
2019-01-24T10:09:24.152Z,49.97
2019-01-24T10:11:45.369Z,50.30
2019-01-24T10:14:06.577Z,50.37
2019-01-24T10:16:27.800Z,50.60
2019-01-24T10:18:49.044Z,52.20
2019-01-24T10:21:10.254Z,52.30
2019-01-24T10:23:31.458Z,53.40
2019-01-24T10:25:52.650Z,50.97
2019-01-24T10:28:13.866Z,53.27
2019-01-24T10:30:35.126Z,51.33
2019-01-24T10:32:57.339Z,55.37
2019-01-24T10:35:18.540Z,53.03
2019-01-24T10:37:39.751Z,52.13
2019-01-24T10:40:01.161Z,52.93
2019-01-24T10:42:22.387Z,50.77
2019-01-24T10:44:43.632Z,51.87
2019-01-24T10:47:04.960Z,53.53
2019-01-24T10:49:26.153Z,50.20
2019-01-24T10:51:47.387Z,50.23
2019-01-24T10:54:08.590Z,48.60
2019-01-24T10:56:29.780Z,53.03
2019-01-24T10:58:51.013Z,51.47
2019-01-24T11:01:13.409Z,49.70
2019-01-24T11:03:34.623Z,50.07
2019-01-24T11:05:55.814Z,48.50
2019-01-24T11:08:17.031Z,49.97
2019-01-24T11:10:38.217Z,47.87
2019-01-24T11:12:59.425Z,50.73
2019-01-24T11:15:23.322Z,49.30
2019-01-24T11:17:44.802Z,47.83
2019-01-24T11:20:09.806Z,47.53
2019-01-24T11:22:31.025Z,49.87
2019-01-24T11:24:52.239Z,50.27
2019-01-24T11:27:13.851Z,47.07
2019-01-24T11:29:35.767Z,47.10
2019-01-24T11:31:57.039Z,50.47
2019-01-24T11:34:18.258Z,46.70
2019-01-24T11:36:39.489Z,49.30
2019-01-24T11:39:00.719Z,47.57
2019-01-24T11:41:21.944Z,46.50
2019-01-24T11:43:43.258Z,48.47
2019-01-24T11:46:04.461Z,50.07
2019-01-24T11:48:25.695Z,45.27
2019-01-24T11:50:46.910Z,46.93
2019-01-24T11:53:08.221Z,44.80
2019-01-24T11:55:29.427Z,45.40
2019-01-24T11:57:50.651Z,48.03
2019-01-24T12:00:22.200Z,46.33
2019-01-24T12:02:43.414Z,44.77
2019-01-24T12:05:08.405Z,50.57
2019-01-24T12:07:29.637Z,43.03
2019-01-24T12:09:50.827Z,47.37
2019-01-24T12:12:12.048Z,49.23
2019-01-24T12:14:33.256Z,47.63
2019-01-24T12:16:54.524Z,42.50
2019-01-24T12:19:15.749Z,44.53
2019-01-24T12:21:36.951Z,47.23
2019-01-24T12:23:58.196Z,44.10
2019-01-24T12:26:19.383Z,46.97
2019-01-24T12:28:40.608Z,44.37
2019-01-24T12:31:01.819Z,45.83
2019-01-24T12:33:23.485Z,43.80
2019-01-24T12:35:44.705Z,44.40
2019-01-24T12:38:05.922Z,47.97
2019-01-24T12:40:27.129Z,42.17
2019-01-24T12:42:48.350Z,44.97
2019-01-24T12:45:15.351Z,42.67
2019-01-24T12:47:36.894Z,43.73
2019-01-24T12:49:58.089Z,42.17
2019-01-24T12:52:19.292Z,44.77
2019-01-24T12:54:40.502Z,45.77
2019-01-24T12:57:01.795Z,44.93
2019-01-24T12:59:23.009Z,43.33
2019-01-24T13:01:44.235Z,44.27
2019-01-24T13:04:05.561Z,42.53
2019-01-24T13:06:26.778Z,44.30
2019-01-24T13:08:47.994Z,44.17
2019-01-24T13:11:09.205Z,44.00
2019-01-24T13:13:30.536Z,47.50
2019-01-24T13:15:51.712Z,47.17
2019-01-24T13:18:12.938Z,47.37
2019-01-24T13:20:34.131Z,43.90
2019-01-24T13:22:55.353Z,43.07
2019-01-24T13:25:22.665Z,46.33
2019-01-24T13:27:43.900Z,46.37
2019-01-24T13:30:11.332Z,45.97
2019-01-24T13:32:32.549Z,44.20
2019-01-24T13:34:53.752Z,45.43
2019-01-24T13:37:14.961Z,43.43
2019-01-24T13:39:36.170Z,44.00
2019-01-24T13:41:57.419Z,45.73
2019-01-24T13:44:20.287Z,46.70
2019-01-24T13:46:42.031Z,44.03
2019-01-24T13:49:03.239Z,46.57
2019-01-24T13:51:24.450Z,48.27
2019-01-24T13:53:45.657Z,46.03
2019-01-24T13:56:06.875Z,51.57
2019-01-24T13:58:28.085Z,50.03
2019-01-24T14:00:49.549Z,48.27
2019-01-24T14:03:17.451Z,45.10
2019-01-24T14:05:38.691Z,51.57
2019-01-24T14:07:59.905Z,51.30
2019-01-24T14:10:21.108Z,48.10
2019-01-24T14:12:42.326Z,47.97
2019-01-24T14:15:10.354Z,43.37
2019-01-24T14:17:31.559Z,44.43
2019-01-24T14:19:52.770Z,46.20
2019-01-24T14:22:13.964Z,46.07
2019-01-24T14:24:35.207Z,44.40
2019-01-24T14:26:56.433Z,44.87
2019-01-24T14:29:17.687Z,45.23
2019-01-24T14:31:38.902Z,44.30
2019-01-24T14:34:00.092Z,46.20
2019-01-24T14:36:25.314Z,43.63
2019-01-24T14:38:44.394Z,45.27
2019-01-24T14:41:05.602Z,42.90
2019-01-24T14:43:26.810Z,44.77
2019-01-24T14:45:48.039Z,45.20
2019-01-24T14:48:09.313Z,42.90
2019-01-24T14:50:30.536Z,46.20
2019-01-24T14:52:51.831Z,45.80
2019-01-24T14:55:13.036Z,58.80
2019-01-24T14:57:34.236Z,57.97
2019-01-24T14:59:55.481Z,49.03
2019-01-24T15:02:16.691Z,45.03
2019-01-24T15:04:37.915Z,47.53
2019-01-24T15:06:59.113Z,44.20
2019-01-24T15:09:20.363Z,46.67
2019-01-24T15:11:41.681Z,50.37
2019-01-24T15:14:02.883Z,46.17
2019-01-24T15:16:24.102Z,47.67
2019-01-24T15:18:45.424Z,51.27
2019-01-24T15:21:06.663Z,43.80
2019-01-24T15:23:49.422Z,47.60
2019-01-24T15:26:10.672Z,47.70
2019-01-24T15:28:31.917Z,48.23
2019-01-24T15:30:53.215Z,47.17
2019-01-24T15:33:14.429Z,46.20
2019-01-24T15:36:11.372Z,53.57
2019-01-24T15:38:32.570Z,47.33
2019-01-24T15:41:06.073Z,47.03
2019-01-24T15:43:27.266Z,48.40
2019-01-24T15:45:48.481Z,48.23
2019-01-24T15:48:09.680Z,47.80
2019-01-24T15:50:34.070Z,47.60
2019-01-24T15:52:55.300Z,51.10
2019-01-24T15:55:16.646Z,51.80
2019-01-24T15:57:37.913Z,51.67
2019-01-24T15:59:59.138Z,49.60
2019-01-24T16:02:20.351Z,49.97
2019-01-24T16:04:41.650Z,49.50
2019-01-24T16:07:02.889Z,50.30
2019-01-24T16:09:24.172Z,49.93
2019-01-24T16:11:45.428Z,51.33
2019-01-24T16:14:08.077Z,53.60
2019-01-24T16:16:29.354Z,51.53
2019-01-24T16:18:50.847Z,52.30
2019-01-24T16:21:12.207Z,51.07
2019-01-24T16:23:33.406Z,52.33
2019-01-24T16:25:54.637Z,55.03
2019-01-24T16:28:16.036Z,51.80
2019-01-24T16:30:37.269Z,53.07
2019-01-24T16:32:58.828Z,54.77
2019-01-24T16:35:20.131Z,51.40
2019-01-24T16:37:41.758Z,52.73
2019-01-24T16:40:07.058Z,50.67
2019-01-24T16:42:28.619Z,47.57
2019-01-24T16:44:50.344Z,50.20
2019-01-24T16:47:11.770Z,48.10
2019-01-24T16:49:33.112Z,51.70
2019-01-24T16:51:57.425Z,50.50
2019-01-24T16:54:18.771Z,49.40
2019-01-24T16:56:40.217Z,55.87
2019-01-24T16:59:01.809Z,53.37
2019-01-24T17:01:23.478Z,53.73
2019-01-24T17:03:44.846Z,56.83
2019-01-24T17:06:06.498Z,56.77
2019-01-24T17:08:27.797Z,60.83
2019-01-24T17:10:49.119Z,53.93
2019-01-24T17:13:10.413Z,59.17
2019-01-24T17:15:31.640Z,60.07
2019-01-24T17:17:54.220Z,59.60
2019-01-24T17:20:26.824Z,64.03
2019-01-24T17:22:48.607Z,65.80
2019-01-24T17:25:11.921Z,68.33
2019-01-24T17:27:33.247Z,88.30
2019-01-24T17:29:55.491Z,68.60
2019-01-24T17:32:17.130Z,65.30
2019-01-24T17:34:38.488Z,69.60
2019-01-24T17:36:59.797Z,67.60
2019-01-24T17:39:20.994Z,63.77
2019-01-24T17:41:42.214Z,65.53
2019-01-24T17:44:04.410Z,65.40
2019-01-24T17:46:25.653Z,68.93
2019-01-24T17:48:47.180Z,62.93
2019-01-24T17:51:08.605Z,65.50
2019-01-24T17:53:30.199Z,63.50
2019-01-24T17:55:51.415Z,67.80
2019-01-24T17:58:12.660Z,64.53
2019-01-24T18:00:35.790Z,66.90
2019-01-24T18:02:57.007Z,64.27
2019-01-24T18:05:18.310Z,69.90
2019-01-24T18:07:39.734Z,67.47
2019-01-24T18:10:00.981Z,66.60
2019-01-24T18:12:22.337Z,62.47
2019-01-24T18:14:43.563Z,66.00
2019-01-24T18:17:04.766Z,64.20
2019-01-24T18:19:25.984Z,63.43
2019-01-24T18:21:47.205Z,66.83
2019-01-24T18:24:08.421Z,67.53
2019-01-24T18:26:29.609Z,64.37
2019-01-24T18:28:50.813Z,66.47
2019-01-24T18:31:12.028Z,84.00
2019-01-24T18:33:33.255Z,94.17
2019-01-24T18:35:54.524Z,87.80
2019-01-24T18:38:15.772Z,71.87
2019-01-24T18:40:37.054Z,69.90
2019-01-24T18:42:58.356Z,70.80
2019-01-24T18:45:29.003Z,68.03
2019-01-24T18:47:50.346Z,69.77
2019-01-24T18:50:19.737Z,69.53
2019-01-24T18:52:40.935Z,71.47
2019-01-24T18:55:02.760Z,66.97
2019-01-24T18:57:23.966Z,73.30
2019-01-24T18:59:45.692Z,75.90
2019-01-24T19:02:07.135Z,72.67
2019-01-24T19:04:28.422Z,71.67
2019-01-24T19:06:49.687Z,70.93
2019-01-24T19:09:10.912Z,67.73
2019-01-24T19:11:32.119Z,69.27
2019-01-24T19:13:53.330Z,71.53
2019-01-24T19:16:14.547Z,72.23
2019-01-24T19:18:36.042Z,70.63
2019-01-24T19:20:57.453Z,70.77
2019-01-24T19:23:18.711Z,68.43
2019-01-24T19:25:39.988Z,70.23
2019-01-24T19:28:03.204Z,65.57
2019-01-24T19:30:30.599Z,66.53
2019-01-24T19:32:51.816Z,63.93
2019-01-24T19:35:13.159Z,62.03
2019-01-24T19:37:34.377Z,63.60
2019-01-24T19:39:55.580Z,66.93
2019-01-24T19:42:16.919Z,63.50
2019-01-24T19:44:38.146Z,65.53
2019-01-24T19:46:59.371Z,67.17
2019-01-24T19:49:20.594Z,65.23
2019-01-24T19:51:41.838Z,63.97
2019-01-24T19:54:04.256Z,69.57
2019-01-24T19:56:25.566Z,65.13
2019-01-24T19:58:46.797Z,62.60
2019-01-24T20:01:23.720Z,66.17
2019-01-24T20:03:45.001Z,61.07
2019-01-24T20:06:06.294Z,61.43
2019-01-24T20:08:27.494Z,61.93
2019-01-24T20:10:48.691Z,57.57
2019-01-24T20:13:10.313Z,57.00
2019-01-24T20:15:31.792Z,44.30
2019-01-24T20:17:55.482Z,37.07
2019-01-24T20:20:17.391Z,38.20
2019-01-24T20:22:38.746Z,35.87
2019-01-24T20:25:00.118Z,32.87
2019-01-24T20:27:21.786Z,30.07
2019-01-24T20:29:43.234Z,29.17
2019-01-24T20:32:04.485Z,31.23
2019-01-24T20:34:25.872Z,25.50
2019-01-24T20:36:47.171Z,25.20
2019-01-24T20:39:08.406Z,26.60
2019-01-24T20:41:29.929Z,25.03
2019-01-24T20:43:54.274Z,26.30
2019-01-24T20:46:15.501Z,25.17
2019-01-24T20:48:36.722Z,23.90
2019-01-24T20:50:57.933Z,23.50
2019-01-24T20:53:19.129Z,26.30
2019-01-24T20:56:02.414Z,25.47
2019-01-24T20:58:24.008Z,23.33
2019-01-24T21:00:45.285Z,25.73
2019-01-24T21:03:06.516Z,26.40
2019-01-24T21:05:27.718Z,25.87
2019-01-24T21:07:54.766Z,23.20
2019-01-24T21:10:21.798Z,23.93
2019-01-24T21:12:43.001Z,24.90
2019-01-24T21:15:07.394Z,25.93
2019-01-24T21:17:28.678Z,24.70
2019-01-24T21:19:49.866Z,25.17
2019-01-24T21:22:22.344Z,24.37
2019-01-24T21:24:43.661Z,26.23
2019-01-24T21:27:04.878Z,103.73
2019-01-24T21:29:27.164Z,35.97
2019-01-24T21:31:48.399Z,37.17
2019-01-24T21:34:09.583Z,29.77
2019-01-24T21:36:30.816Z,94.20
2019-01-24T21:38:52.036Z,35.77
2019-01-24T21:41:13.236Z,32.63
2019-01-24T21:43:34.738Z,26.40
2019-01-24T21:45:55.995Z,27.63
2019-01-24T21:48:17.225Z,27.33
2019-01-24T21:50:44.511Z,26.43
2019-01-24T21:53:07.032Z,26.60
2019-01-24T21:55:28.668Z,30.37
2019-01-24T21:57:49.966Z,29.40
2019-01-24T22:00:14.281Z,29.83
2019-01-24T22:02:35.615Z,29.37
2019-01-24T22:04:56.814Z,31.27
2019-01-24T22:07:18.018Z,33.00
2019-01-24T22:09:39.278Z,31.43
2019-01-24T22:12:00.582Z,32.63
2019-01-24T22:14:22.879Z,31.60
2019-01-24T22:16:44.101Z,32.00
2019-01-24T22:19:05.402Z,33.33
2019-01-24T22:21:26.722Z,33.63
2019-01-24T22:23:50.034Z,36.13
2019-01-24T22:26:11.235Z,34.40
2019-01-24T22:28:32.466Z,34.63
2019-01-24T22:30:54.770Z,34.50
2019-01-24T22:33:15.999Z,37.43
2019-01-24T22:35:37.182Z,35.60
2019-01-24T22:37:58.411Z,36.57
2019-01-24T22:40:19.615Z,40.63
2019-01-24T22:42:40.931Z,37.33
2019-01-24T22:45:02.384Z,39.47
2019-01-24T22:47:23.586Z,38.30
2019-01-24T22:49:44.806Z,70.30
2019-01-24T22:52:06.027Z,67.90
2019-01-24T22:54:28.050Z,41.63
2019-01-24T22:56:49.314Z,34.40
2019-01-24T22:59:10.504Z,36.07
2019-01-24T23:01:35.527Z,39.00
2019-01-24T23:03:57.164Z,37.03
2019-01-24T23:06:18.380Z,37.37
2019-01-24T23:08:41.842Z,37.30
2019-01-24T23:11:07.538Z,39.53
2019-01-24T23:13:38.052Z,38.53
2019-01-24T23:16:23.946Z,35.30
2019-01-24T23:18:45.151Z,38.03
2019-01-24T23:21:10.510Z,38.63
2019-01-24T23:23:31.776Z,39.67
2019-01-24T23:25:53.059Z,36.90
2019-01-24T23:28:14.871Z,41.10
2019-01-24T23:30:36.124Z,40.90
2019-01-24T23:32:57.321Z,39.37
2019-01-24T23:35:18.542Z,37.30
2019-01-24T23:37:40.007Z,38.77
2019-01-24T23:40:02.515Z,39.40
2019-01-24T23:42:23.718Z,35.83
2019-01-24T23:44:44.946Z,38.87
2019-01-24T23:47:06.141Z,41.60
2019-01-24T23:49:27.355Z,41.13
2019-01-24T23:51:48.559Z,38.60
2019-01-24T23:54:09.768Z,39.60
2019-01-24T23:56:30.963Z,40.77
2019-01-24T23:58:52.180Z,38.70
